createdAt,value
2019-05-25T00:00:28.901Z,99437.97
2019-05-25T00:02:55.421Z,99438.61
2019-05-25T00:05:22.170Z,99435.81
2019-05-25T00:07:48.514Z,99435.81
2019-05-25T00:10:15.311Z,99440.27
2019-05-25T00:12:41.687Z,99436.13
2019-05-25T00:15:08.629Z,99437.14
2019-05-25T00:17:34.983Z,99437.97
2019-05-25T00:20:01.705Z,99437.48
2019-05-25T00:22:30.907Z,99444.77
2019-05-25T00:24:57.423Z,99443.63
2019-05-25T00:27:24.083Z,99442.46
2019-05-25T00:29:50.897Z,99445.84
2019-05-25T00:32:17.404Z,99438.41
2019-05-25T00:34:43.898Z,99427.80
2019-05-25T00:37:10.459Z,99428.91
2019-05-25T00:39:36.977Z,99426.27
2019-05-25T00:42:03.357Z,99422.45
2019-05-25T00:44:29.703Z,99427.83
2019-05-25T00:46:56.049Z,99420.52
2019-05-25T00:49:22.808Z,99422.64
2019-05-25T00:51:49.227Z,99425.84
2019-05-25T00:54:27.440Z,99427.59
2019-05-25T00:56:44.919Z,99422.48
2019-05-25T00:59:11.255Z,99424.94
2019-05-25T01:01:37.606Z,99427.41
2019-05-25T01:04:03.985Z,99431.36
2019-05-25T01:06:30.327Z,99428.91
2019-05-25T01:08:56.682Z,99434.53
2019-05-25T01:11:23.346Z,99426.94
2019-05-25T01:13:49.699Z,99432.19
2019-05-25T01:16:16.044Z,99437.02
2019-05-25T01:18:42.393Z,99437.09
2019-05-25T01:21:08.722Z,99435.61
2019-05-25T01:23:35.405Z,99439.91
2019-05-25T01:26:01.737Z,99445.67
2019-05-25T01:28:28.088Z,99449.86
2019-05-25T01:30:54.410Z,99448.55
2019-05-25T01:33:21.046Z,99447.19
2019-05-25T01:35:47.414Z,99449.82
2019-05-25T01:38:13.745Z,99452.36
2019-05-25T01:40:40.444Z,99447.19
2019-05-25T01:43:07.798Z,99452.06
2019-05-25T01:45:34.136Z,99449.41
2019-05-25T01:48:00.455Z,99456.16
2019-05-25T01:50:26.852Z,99447.55
2019-05-25T01:52:53.189Z,99451.52
2019-05-25T01:55:21.409Z,99450.47
2019-05-25T01:57:49.718Z,99449.77
2019-05-25T02:00:23.693Z,99449.28
2019-05-25T02:02:50.038Z,99452.56
2019-05-25T02:05:17.065Z,99450.21
2019-05-25T02:07:43.409Z,99452.83
2019-05-25T02:10:10.619Z,99451.92
2019-05-25T02:12:36.970Z,99449.19
2019-05-25T02:15:09.281Z,99450.66
2019-05-25T02:17:35.664Z,99451.23
2019-05-25T02:20:05.714Z,99449.63
2019-05-25T02:22:32.046Z,99450.80
2019-05-25T02:24:58.396Z,99449.60
2019-05-25T02:27:24.774Z,99452.31
2019-05-25T02:29:51.140Z,99452.31
2019-05-25T02:32:17.460Z,99455.02
2019-05-25T02:34:44.662Z,99449.74
2019-05-25T02:37:11.157Z,99457.63
2019-05-25T02:39:37.483Z,99453.97
2019-05-25T02:42:04.100Z,99461.05
2019-05-25T02:44:30.464Z,99454.66
2019-05-25T02:46:56.787Z,99455.89
2019-05-25T02:49:23.130Z,99457.80
2019-05-25T02:51:49.452Z,99456.48
2019-05-25T02:54:16.151Z,99457.17
2019-05-25T02:56:42.468Z,99457.31
2019-05-25T02:59:08.825Z,99461.67
2019-05-25T03:01:35.206Z,99462.25
2019-05-25T03:04:01.518Z,99463.28
2019-05-25T03:06:28.760Z,99466.38
2019-05-25T03:08:55.903Z,99469.06
2019-05-25T03:11:22.366Z,99467.69
2019-05-25T03:13:48.913Z,99468.45
2019-05-25T03:16:15.311Z,99477.44
2019-05-25T03:18:41.712Z,99468.27
2019-05-25T03:21:09.259Z,99480.28
2019-05-25T03:23:35.596Z,99486.51
2019-05-25T03:26:01.914Z,99487.25
2019-05-25T03:28:28.281Z,99487.59
2019-05-25T03:30:54.698Z,99490.63
2019-05-25T03:33:21.068Z,99483.95
2019-05-25T03:35:47.696Z,99491.38
2019-05-25T03:38:14.374Z,99491.82
2019-05-25T03:40:40.750Z,99495.07
2019-05-25T03:43:07.177Z,99496.34
2019-05-25T03:45:33.778Z,99492.38
2019-05-25T03:48:00.354Z,99499.72
2019-05-25T03:50:27.048Z,99495.73
2019-05-25T03:52:53.425Z,99500.33
2019-05-25T03:55:19.862Z,99505.12
2019-05-25T03:57:46.212Z,99511.80
2019-05-25T04:00:14.577Z,99511.50
2019-05-25T04:02:41.163Z,99513.23
2019-05-25T04:05:07.902Z,99510.00
2019-05-25T04:07:34.306Z,99513.41
2019-05-25T04:10:00.692Z,99507.52
2019-05-25T04:12:27.537Z,99499.54
2019-05-25T04:14:53.941Z,99500.11
2019-05-25T04:17:20.272Z,99510.10
2019-05-25T04:19:49.803Z,99510.80
2019-05-25T04:22:16.265Z,99514.16
2019-05-25T04:24:42.697Z,99517.14
2019-05-25T04:27:09.008Z,99518.73
2019-05-25T04:29:37.344Z,99524.98
2019-05-25T04:32:04.017Z,99522.61
2019-05-25T04:34:30.347Z,99525.59
2019-05-25T04:36:56.728Z,99525.26
2019-05-25T04:39:23.120Z,99527.62
2019-05-25T04:41:50.552Z,99527.14
2019-05-25T04:44:16.956Z,99532.78
2019-05-25T04:46:43.590Z,99527.83
2019-05-25T04:49:09.950Z,99530.83
2019-05-25T04:51:36.284Z,99534.02
2019-05-25T04:54:03.209Z,99543.12
2019-05-25T04:56:39.112Z,99538.92
2019-05-25T04:58:57.807Z,99549.03
2019-05-25T05:01:24.129Z,99546.73
2019-05-25T05:03:50.548Z,99544.11
2019-05-25T05:06:16.867Z,99545.58
2019-05-25T05:08:43.227Z,99552.34
2019-05-25T05:11:09.559Z,99555.14
2019-05-25T05:13:35.926Z,99556.41
2019-05-25T05:16:04.353Z,99557.61
2019-05-25T05:18:30.699Z,99567.36
2019-05-25T05:20:58.195Z,99562.98
2019-05-25T05:23:24.525Z,99560.39
2019-05-25T05:25:50.966Z,99564.81
2019-05-25T05:28:17.581Z,99560.41
2019-05-25T05:30:43.948Z,99561.73
2019-05-25T05:33:10.339Z,99566.23
2019-05-25T05:35:39.064Z,99569.72
2019-05-25T05:38:06.118Z,99570.00
2019-05-25T05:40:34.405Z,99576.52
2019-05-25T05:43:08.785Z,99576.84
2019-05-25T05:45:41.200Z,99581.17
2019-05-25T05:48:09.810Z,99579.67
2019-05-25T05:50:38.558Z,99587.14
2019-05-25T05:53:04.887Z,99582.91
2019-05-25T05:55:31.735Z,99585.11
2019-05-25T05:58:00.478Z,99580.86
2019-05-25T06:00:27.054Z,99588.41
2019-05-25T06:02:53.815Z,99593.04
2019-05-25T06:05:20.282Z,99592.96
2019-05-25T06:07:46.633Z,99600.51
2019-05-25T06:10:13.278Z,99595.87
2019-05-25T06:12:39.814Z,99604.59
2019-05-25T06:15:06.573Z,99603.11
2019-05-25T06:17:32.919Z,99602.14
2019-05-25T06:19:59.364Z,99608.31
2019-05-25T06:22:25.752Z,99610.30
2019-05-25T06:24:52.636Z,99612.87
2019-05-25T06:27:27.629Z,99607.95
2019-05-25T06:29:47.269Z,99603.88
2019-05-25T06:32:13.628Z,99604.59
2019-05-25T06:34:40.217Z,99609.77
2019-05-25T06:37:06.661Z,99608.05
2019-05-25T06:39:34.348Z,99599.55
2019-05-25T06:42:00.781Z,99607.23
2019-05-25T06:44:27.161Z,99606.66
2019-05-25T06:46:53.639Z,99603.78
2019-05-25T06:49:20.211Z,99602.55
2019-05-25T06:51:48.835Z,99605.95
2019-05-25T06:54:15.296Z,99609.44
2019-05-25T06:56:42.021Z,99608.09
2019-05-25T06:59:11.370Z,99622.73
2019-05-25T07:01:37.987Z,99619.73
2019-05-25T07:04:04.378Z,99631.16
2019-05-25T07:06:30.750Z,99619.52
2019-05-25T07:08:57.116Z,99629.64
2019-05-25T07:11:23.495Z,99633.62
2019-05-25T07:13:49.857Z,99637.89
2019-05-25T07:16:16.253Z,99641.41
2019-05-25T07:18:42.641Z,99635.70
2019-05-25T07:21:09.278Z,99645.70
2019-05-25T07:23:35.972Z,99650.69
2019-05-25T07:26:03.437Z,99638.33
2019-05-25T07:28:30.913Z,99650.57
2019-05-25T07:30:57.245Z,99649.06
2019-05-25T07:33:23.706Z,99653.45
2019-05-25T07:35:51.956Z,99648.48
2019-05-25T07:38:18.326Z,99656.88
2019-05-25T07:40:44.704Z,99656.86
2019-05-25T07:43:11.363Z,99654.77
2019-05-25T07:45:37.729Z,99657.76
2019-05-25T07:48:04.090Z,99656.39
2019-05-25T07:50:30.458Z,99657.98
2019-05-25T07:52:56.788Z,99653.63
2019-05-25T07:55:24.181Z,99665.71
2019-05-25T07:57:50.616Z,99660.35
2019-05-25T08:00:17.350Z,99667.04
2019-05-25T08:02:43.897Z,99669.44
2019-05-25T08:05:11.754Z,99667.64
2019-05-25T08:07:38.134Z,99666.53
2019-05-25T08:10:05.361Z,99674.10
2019-05-25T08:12:32.842Z,99672.50
2019-05-25T08:15:10.146Z,99676.06
2019-05-25T08:17:36.592Z,99668.61
2019-05-25T08:20:07.461Z,99680.92
2019-05-25T08:22:34.254Z,99682.38
2019-05-25T08:25:09.656Z,99684.06
2019-05-25T08:27:36.140Z,99676.94
2019-05-25T08:30:07.291Z,99675.64
2019-05-25T08:32:33.795Z,99673.66
2019-05-25T08:35:00.126Z,99672.38
2019-05-25T08:37:26.920Z,99676.70
2019-05-25T08:39:53.271Z,99676.38
2019-05-25T08:42:19.649Z,99679.61
2019-05-25T08:44:46.011Z,99682.50
2019-05-25T08:47:12.499Z,99677.30
2019-05-25T08:49:38.859Z,99684.70
2019-05-25T08:52:06.296Z,99687.48
2019-05-25T08:54:32.632Z,99673.77
2019-05-25T08:56:58.987Z,99678.40
2019-05-25T08:59:25.346Z,99681.49
2019-05-25T09:01:53.665Z,99682.39
2019-05-25T09:04:19.985Z,99684.01
2019-05-25T09:06:46.380Z,99675.93
2019-05-25T09:09:12.709Z,99676.10
2019-05-25T09:11:39.061Z,99675.77
2019-05-25T09:14:05.389Z,99681.67
2019-05-25T09:16:32.146Z,99688.11
2019-05-25T09:18:58.857Z,99689.73
2019-05-25T09:21:25.401Z,99688.09
2019-05-25T09:23:51.835Z,99687.59
2019-05-25T09:26:18.277Z,99686.29
2019-05-25T09:28:44.613Z,99687.95
2019-05-25T09:31:11.249Z,99691.09
2019-05-25T09:33:37.936Z,99689.73
2019-05-25T09:36:04.390Z,99689.50
2019-05-25T09:38:31.067Z,99691.67
2019-05-25T09:40:57.785Z,99687.16
2019-05-25T09:43:24.439Z,99684.34
2019-05-25T09:45:54.645Z,99686.38
2019-05-25T09:48:21.153Z,99685.83
2019-05-25T09:50:47.533Z,99686.59
2019-05-25T09:53:13.925Z,99687.48
2019-05-25T09:55:45.563Z,99686.58
2019-05-25T09:58:12.145Z,99689.08
2019-05-25T10:00:45.006Z,99691.88
2019-05-25T10:03:31.652Z,99693.64
2019-05-25T10:05:58.221Z,99696.48
2019-05-25T10:08:24.829Z,99697.90
2019-05-25T10:10:51.168Z,99699.25
2019-05-25T10:13:17.600Z,99698.20
2019-05-25T10:15:44.124Z,99700.37
2019-05-25T10:18:10.522Z,99693.16
2019-05-25T10:20:37.294Z,99695.63
2019-05-25T10:23:05.506Z,99702.88
2019-05-25T10:25:32.320Z,99691.82
2019-05-25T10:27:58.707Z,99695.11
2019-05-25T10:30:25.136Z,99691.90
2019-05-25T10:32:51.901Z,99692.84
2019-05-25T10:35:18.742Z,99684.29
2019-05-25T10:37:45.316Z,99690.39
2019-05-25T10:40:12.206Z,99687.84
2019-05-25T10:42:39.969Z,99691.27
2019-05-25T10:45:08.506Z,99686.64
2019-05-25T10:47:34.978Z,99688.43
2019-05-25T10:50:08.611Z,99685.69
2019-05-25T10:52:34.993Z,99686.33
2019-05-25T10:55:02.175Z,99677.63
2019-05-25T10:57:28.912Z,99678.30
2019-05-25T10:59:55.281Z,99690.16
2019-05-25T11:02:21.604Z,99669.73
2019-05-25T11:04:48.219Z,99678.18
2019-05-25T11:07:14.865Z,99666.03
2019-05-25T11:09:41.375Z,99668.09
2019-05-25T11:12:07.717Z,99669.45
2019-05-25T11:14:34.053Z,99662.33
2019-05-25T11:17:00.429Z,99671.94
2019-05-25T11:19:26.775Z,99658.52
2019-05-25T11:21:53.591Z,99663.82
2019-05-25T11:24:20.080Z,99659.91
2019-05-25T11:26:46.426Z,99658.33
2019-05-25T11:29:12.779Z,99669.50
2019-05-25T11:31:40.319Z,99667.31
2019-05-25T11:34:06.675Z,99665.08
2019-05-25T11:36:34.149Z,99659.03
2019-05-25T11:39:01.596Z,99657.06
2019-05-25T11:41:29.274Z,99662.97
2019-05-25T11:43:57.327Z,99657.02
2019-05-25T11:46:24.861Z,99666.03
2019-05-25T11:48:51.251Z,99660.34
2019-05-25T11:51:17.930Z,99662.22
2019-05-25T11:53:44.301Z,99663.05
2019-05-25T11:56:10.623Z,99664.11
2019-05-25T11:58:47.069Z,99670.70
2019-05-25T12:01:05.445Z,99666.93
2019-05-25T12:03:31.941Z,99667.93
2019-05-25T12:05:58.302Z,99678.90
2019-05-25T12:08:24.647Z,99678.50
2019-05-25T12:10:51.011Z,99678.50
2019-05-25T12:13:17.335Z,99671.48
2019-05-25T12:15:43.742Z,99668.08
2019-05-25T12:18:10.450Z,99659.27
2019-05-25T12:20:36.902Z,99663.78
2019-05-25T12:23:04.059Z,99666.83
2019-05-25T12:25:31.012Z,99657.52
2019-05-25T12:27:57.381Z,99667.12
2019-05-25T12:30:39.428Z,99664.88
2019-05-25T12:32:53.294Z,99663.39
2019-05-25T12:35:19.729Z,99670.72
2019-05-25T12:37:53.506Z,99669.16
2019-05-25T12:40:21.158Z,99673.16
2019-05-25T12:42:47.500Z,99678.97
2019-05-25T12:45:14.084Z,99684.16
2019-05-25T12:47:40.681Z,99682.04
2019-05-25T12:50:07.474Z,99669.15
2019-05-25T12:52:33.937Z,99677.67
2019-05-25T12:55:01.238Z,99682.34
2019-05-25T12:57:27.568Z,99680.37
2019-05-25T12:59:53.919Z,99673.84
2019-05-25T13:02:22.608Z,99667.30
2019-05-25T13:05:15.881Z,99658.30
2019-05-25T13:07:43.050Z,99655.69
2019-05-25T13:10:10.714Z,99663.23
2019-05-25T13:12:37.148Z,99661.14
2019-05-25T13:15:06.319Z,99659.66
2019-05-25T13:17:32.646Z,99660.88
2019-05-25T13:19:59.154Z,99665.36
2019-05-25T13:22:26.605Z,99658.47
2019-05-25T13:24:53.282Z,99659.16
2019-05-25T13:27:19.947Z,99654.36
2019-05-25T13:29:46.582Z,99653.27
2019-05-25T13:32:12.918Z,99638.05
2019-05-25T13:34:39.248Z,99647.36
2019-05-25T13:37:05.696Z,99644.08
2019-05-25T13:39:33.685Z,99634.72
2019-05-25T13:42:00.022Z,99635.72
2019-05-25T13:44:26.834Z,99639.48
2019-05-25T13:46:53.321Z,99642.08
2019-05-25T13:49:19.939Z,99646.70
2019-05-25T13:51:50.670Z,99634.92
2019-05-25T13:54:17.464Z,99657.86
2019-05-25T13:56:44.109Z,99648.61
2019-05-25T13:59:13.448Z,99650.28
2019-05-25T14:01:39.837Z,99655.34
2019-05-25T14:04:06.492Z,99650.24
2019-05-25T14:06:33.205Z,99661.42
2019-05-25T14:08:59.548Z,99661.28
2019-05-25T14:11:27.004Z,99665.87
2019-05-25T14:13:53.438Z,99663.28
2019-05-25T14:16:19.808Z,99659.16
2019-05-25T14:18:46.682Z,99655.64
2019-05-25T14:21:13.363Z,99650.92
2019-05-25T14:23:40.812Z,99657.86
2019-05-25T14:26:08.203Z,99655.41
2019-05-25T14:28:34.596Z,99655.14
2019-05-25T14:31:00.905Z,99640.05
2019-05-25T14:33:27.292Z,99648.14
2019-05-25T14:35:55.632Z,99653.58
2019-05-25T14:38:22.325Z,99638.62
2019-05-25T14:40:48.675Z,99636.27
2019-05-25T14:43:14.983Z,99642.94
2019-05-25T14:45:43.221Z,99626.54
2019-05-25T14:48:09.571Z,99630.16
2019-05-25T14:50:36.400Z,99626.20
2019-05-25T14:53:04.688Z,99629.34
2019-05-25T14:55:31.006Z,99648.06
2019-05-25T14:57:57.436Z,99645.78
2019-05-25T15:00:25.317Z,99646.66
2019-05-25T15:02:52.029Z,99640.11
2019-05-25T15:05:18.682Z,99648.78
2019-05-25T15:07:46.467Z,99647.59
2019-05-25T15:10:13.836Z,99648.14
2019-05-25T15:12:40.145Z,99635.50
2019-05-25T15:15:07.430Z,99641.13
2019-05-25T15:17:37.251Z,99631.06
2019-05-25T15:20:10.755Z,99645.74
2019-05-25T15:22:37.554Z,99636.45
2019-05-25T15:25:10.951Z,99637.44
2019-05-25T15:27:38.628Z,99641.84
2019-05-25T15:30:06.484Z,99642.98
2019-05-25T15:32:32.853Z,99640.59
2019-05-25T15:35:00.015Z,99645.69
2019-05-25T15:37:26.784Z,99646.03
2019-05-25T15:39:53.176Z,99638.61
2019-05-25T15:42:19.504Z,99640.85
2019-05-25T15:44:46.071Z,99643.31
2019-05-25T15:47:12.462Z,99627.92
2019-05-25T15:49:41.164Z,99633.05
2019-05-25T15:52:07.834Z,99625.32
2019-05-25T15:54:34.181Z,99627.91
2019-05-25T15:57:00.844Z,99640.10
2019-05-25T15:59:27.157Z,99619.52
2019-05-25T16:01:53.487Z,99623.34
2019-05-25T16:04:19.821Z,99624.05
2019-05-25T16:06:46.177Z,99622.69
2019-05-25T16:09:12.945Z,99625.51
2019-05-25T16:11:39.310Z,99616.77
2019-05-25T16:14:07.602Z,99623.81
2019-05-25T16:16:33.915Z,99620.89
2019-05-25T16:19:00.255Z,99619.73
2019-05-25T16:21:27.900Z,99618.09
2019-05-25T16:23:54.349Z,99613.13
2019-05-25T16:26:20.714Z,99610.30
2019-05-25T16:28:47.356Z,99612.19
2019-05-25T16:31:13.713Z,99608.88
2019-05-25T16:33:40.175Z,99619.05
2019-05-25T16:36:06.955Z,99617.61
2019-05-25T16:38:33.291Z,99620.14
2019-05-25T16:41:00.925Z,99616.98
2019-05-25T16:43:27.253Z,99615.33
2019-05-25T16:46:26.382Z,99620.84
2019-05-25T16:48:53.848Z,99612.06
2019-05-25T16:51:21.234Z,99615.27
2019-05-25T16:53:47.565Z,99607.05
2019-05-25T16:56:13.899Z,99616.77
2019-05-25T16:58:40.228Z,99627.87
2019-05-25T17:01:06.561Z,99623.69
2019-05-25T17:03:33.560Z,99622.17
2019-05-25T17:05:59.941Z,99623.66
2019-05-25T17:08:31.844Z,99617.23
2019-05-25T17:11:00.776Z,99625.08
2019-05-25T17:13:27.123Z,99625.16
2019-05-25T17:15:53.526Z,99626.28
2019-05-25T17:18:19.968Z,99633.81
2019-05-25T17:20:47.183Z,99637.70
2019-05-25T17:23:13.845Z,99639.89
2019-05-25T17:25:41.408Z,99641.80
2019-05-25T17:28:09.034Z,99645.12
2019-05-25T17:30:44.532Z,99638.89
2019-05-25T17:33:11.704Z,99639.88
2019-05-25T17:35:41.194Z,99629.19
2019-05-25T17:38:08.428Z,99633.48
2019-05-25T17:40:34.899Z,99625.71
2019-05-25T17:43:01.453Z,99637.81
2019-05-25T17:45:27.772Z,99641.83
2019-05-25T17:47:54.109Z,99644.04
2019-05-25T17:50:20.544Z,99635.77
2019-05-25T17:52:46.975Z,99641.80
2019-05-25T17:55:14.708Z,99639.67
2019-05-25T17:57:41.686Z,99637.33
2019-05-25T18:00:08.943Z,99633.80
2019-05-25T18:02:35.279Z,99634.86
2019-05-25T18:05:02.810Z,99640.84
2019-05-25T18:07:29.160Z,99631.97
2019-05-25T18:09:55.833Z,99631.12
2019-05-25T18:12:22.193Z,99631.69
2019-05-25T18:14:48.493Z,99636.64
2019-05-25T18:17:14.813Z,99620.70
2019-05-25T18:19:41.186Z,99633.67
2019-05-25T18:22:07.551Z,99632.09
2019-05-25T18:24:33.964Z,99630.89
2019-05-25T18:27:00.838Z,99634.23
2019-05-25T18:29:27.212Z,99634.09
2019-05-25T18:31:53.649Z,99632.80
2019-05-25T18:34:22.404Z,99634.30
2019-05-25T18:36:48.512Z,99636.99
2019-05-25T18:39:14.894Z,99639.11
2019-05-25T18:41:41.223Z,99641.55
2019-05-25T18:44:07.663Z,99638.44
2019-05-25T18:46:34.026Z,99644.67
2019-05-25T18:49:01.605Z,99646.47
2019-05-25T18:51:28.264Z,99648.67
2019-05-25T18:53:55.060Z,99652.21
2019-05-25T18:56:21.497Z,99647.77
2019-05-25T18:58:47.904Z,99645.02
2019-05-25T19:01:15.491Z,99644.32
2019-05-25T19:03:42.304Z,99644.03
2019-05-25T19:06:08.847Z,99645.80
2019-05-25T19:08:35.591Z,99647.66
2019-05-25T19:11:01.985Z,99651.14
2019-05-25T19:13:28.445Z,99651.66
2019-05-25T19:15:54.787Z,99651.94
2019-05-25T19:18:21.282Z,99656.45
2019-05-25T19:20:47.602Z,99655.17
2019-05-25T19:23:13.944Z,99659.27
2019-05-25T19:25:40.281Z,99660.81
2019-05-25T19:28:06.614Z,99662.64
2019-05-25T19:30:33.308Z,99663.30
2019-05-25T19:32:59.746Z,99671.42
2019-05-25T19:35:26.093Z,99669.44
2019-05-25T19:37:52.447Z,99669.61
2019-05-25T19:40:19.057Z,99677.41
2019-05-25T19:42:49.510Z,99685.66
2019-05-25T19:45:14.486Z,99682.84
2019-05-25T19:47:40.861Z,99682.47
2019-05-25T19:50:07.597Z,99689.67
2019-05-25T19:52:33.972Z,99685.42
2019-05-25T19:55:00.896Z,99684.98
2019-05-25T19:57:27.252Z,99694.09
2019-05-25T19:59:53.585Z,99697.33
2019-05-25T20:02:19.961Z,99702.38
2019-05-25T20:04:46.435Z,99701.17
2019-05-25T20:07:12.938Z,99702.20
2019-05-25T20:09:39.261Z,99702.99
2019-05-25T20:12:05.626Z,99705.15
2019-05-25T20:14:31.987Z,99704.88
2019-05-25T20:16:58.687Z,99709.31
2019-05-25T20:19:25.353Z,99717.03
2019-05-25T20:25:28.379Z,99718.98
2019-05-25T20:27:54.775Z,99722.53
2019-05-25T20:30:21.166Z,99732.63
2019-05-25T20:32:47.590Z,99731.93
2019-05-25T20:35:14.590Z,99742.03
2019-05-25T20:37:41.245Z,99744.55
2019-05-25T20:40:08.769Z,99752.54
2019-05-25T20:42:35.795Z,99744.77
2019-05-25T20:45:07.306Z,99749.77
2019-05-25T20:47:33.623Z,99762.22
2019-05-25T20:50:00.282Z,99757.30
2019-05-25T20:52:26.602Z,99756.61
2019-05-25T20:54:52.978Z,99757.97
2019-05-25T20:57:19.290Z,99759.72
2019-05-25T20:59:45.642Z,99762.75
2019-05-25T21:02:12.263Z,99769.11
2019-05-25T21:04:38.609Z,99768.42
2019-05-25T21:07:04.980Z,99771.03
2019-05-25T21:09:31.332Z,99766.59
2019-05-25T21:11:57.707Z,99769.73
2019-05-25T21:14:24.412Z,99773.67
2019-05-25T21:16:53.723Z,99777.90
2019-05-25T21:19:21.921Z,99782.31
2019-05-25T21:21:48.246Z,99783.64
2019-05-25T21:24:14.692Z,99782.10
2019-05-25T21:26:41.031Z,99778.84
2019-05-25T21:29:07.391Z,99792.64
2019-05-25T21:31:33.745Z,99789.02
2019-05-25T21:34:01.064Z,99798.36
2019-05-25T21:36:27.411Z,99797.22
2019-05-25T21:38:54.161Z,99799.38
2019-05-25T21:41:20.530Z,99804.03
2019-05-25T21:43:46.949Z,99813.80
2019-05-25T21:46:14.689Z,99808.92
2019-05-25T21:48:41.304Z,99809.05
2019-05-25T21:51:09.606Z,99813.97
2019-05-25T21:53:35.916Z,99823.78
2019-05-25T21:56:02.294Z,99831.29
2019-05-25T21:58:28.921Z,99827.14
2019-05-25T22:00:55.285Z,99829.71
2019-05-25T22:03:23.630Z,99835.67
2019-05-25T22:05:49.951Z,99833.08
2019-05-25T22:08:16.256Z,99832.76
2019-05-25T22:10:42.601Z,99836.72
2019-05-25T22:13:24.947Z,99834.48
2019-05-25T22:15:37.302Z,99834.59
2019-05-25T22:18:04.229Z,99836.23
2019-05-25T22:20:30.883Z,99840.88
2019-05-25T22:22:57.235Z,99837.47
2019-05-25T22:25:23.548Z,99837.56
2019-05-25T22:27:50.322Z,99835.11
2019-05-25T22:30:17.346Z,99836.42
2019-05-25T22:32:43.698Z,99838.79
2019-05-25T22:35:11.279Z,99832.56
2019-05-25T22:37:37.692Z,99830.34
2019-05-25T22:40:05.850Z,99831.45
2019-05-25T22:42:32.204Z,99826.37
2019-05-25T22:44:58.549Z,99831.04
2019-05-25T22:47:24.865Z,99834.22
2019-05-25T22:49:52.426Z,99836.38
2019-05-25T22:52:18.745Z,99833.52
2019-05-25T22:54:45.098Z,99828.41
2019-05-25T22:57:11.406Z,99828.28
2019-05-25T22:59:37.746Z,99834.64
2019-05-25T23:02:23.100Z,99831.27
2019-05-25T23:04:49.475Z,99827.31
2019-05-25T23:07:16.211Z,99833.09
2019-05-25T23:09:42.543Z,99831.80
2019-05-25T23:12:10.234Z,99835.05
2019-05-25T23:14:36.609Z,99831.53
2019-05-25T23:17:03.544Z,99825.90
2019-05-25T23:19:29.881Z,99837.75
2019-05-25T23:21:56.210Z,99829.92
2019-05-25T23:24:22.971Z,99841.72
2019-05-25T23:26:49.313Z,99832.49
2019-05-25T23:29:15.649Z,99838.16
2019-05-25T23:31:41.975Z,99837.55
2019-05-25T23:34:08.344Z,99834.00
2019-05-25T23:36:34.667Z,99838.04
2019-05-25T23:39:01.008Z,99838.09
2019-05-25T23:41:27.684Z,99836.77
2019-05-25T23:43:54.048Z,99829.84
2019-05-25T23:46:20.410Z,99832.09
2019-05-25T23:48:47.842Z,99827.69
2019-05-25T23:51:14.208Z,99834.90
2019-05-25T23:53:41.551Z,99832.78
2019-05-25T23:56:07.906Z,99823.56
2019-05-25T23:58:34.268Z,99818.91
